createdAt,value
2018-02-11T00:01:53.485Z,92.60
2018-02-11T00:04:20.373Z,92.70
2018-02-11T00:06:47.224Z,92.50
2018-02-11T00:09:14.080Z,92.80
2018-02-11T00:11:40.878Z,92.50
2018-02-11T00:14:07.734Z,92.50
2018-02-11T00:16:34.657Z,92.60
2018-02-11T00:19:01.466Z,92.70
2018-02-11T00:21:28.277Z,92.80
2018-02-11T00:23:55.245Z,92.50
2018-02-11T00:26:22.072Z,92.80
2018-02-11T00:28:49.612Z,93.00
2018-02-11T00:31:16.437Z,92.90
2018-02-11T00:33:43.352Z,93.10
2018-02-11T00:36:10.925Z,92.60
2018-02-11T00:38:37.741Z,92.50
2018-02-11T00:41:05.321Z,92.30
2018-02-11T00:43:32.214Z,92.30
2018-02-11T00:45:59.073Z,91.80
2018-02-11T00:48:25.857Z,91.80
2018-02-11T00:50:53.418Z,91.60
2018-02-11T00:53:21.041Z,92.20
2018-02-11T00:55:47.997Z,92.20
2018-02-11T00:58:14.850Z,92.60
2018-02-11T01:00:41.689Z,92.40
2018-02-11T01:03:09.305Z,91.60
2018-02-11T01:05:36.125Z,91.60
2018-02-11T01:08:09.992Z,92.10
2018-02-11T01:10:36.942Z,91.80
2018-02-11T01:13:04.561Z,92.20
2018-02-11T01:15:31.382Z,92.20
2018-02-11T01:17:58.203Z,92.30
2018-02-11T01:20:25.752Z,92.60
2018-02-11T01:22:53.419Z,92.20
2018-02-11T01:25:20.981Z,91.90
2018-02-11T01:27:47.806Z,91.90
2018-02-11T01:30:14.652Z,92.20
2018-02-11T01:32:41.450Z,91.90
2018-02-11T01:35:08.269Z,91.40
2018-02-11T01:37:35.169Z,91.90
2018-02-11T01:40:02.030Z,92.30
2018-02-11T01:42:28.950Z,92.20
2018-02-11T01:44:55.750Z,92.20
2018-02-11T01:47:22.585Z,92.50
2018-02-11T01:50:01.786Z,92.30
2018-02-11T01:52:29.402Z,92.40
2018-02-11T01:54:56.229Z,92.40
2018-02-11T01:57:23.036Z,92.80
2018-02-11T01:59:49.872Z,92.30
2018-02-11T02:02:16.841Z,92.30
2018-02-11T02:04:43.665Z,92.10
2018-02-11T02:07:11.233Z,91.90
2018-02-11T02:09:38.806Z,92.10
2018-02-11T02:12:05.653Z,92.10
2018-02-11T02:14:32.474Z,92.10
2018-02-11T02:17:00.050Z,92.30
2018-02-11T02:19:27.618Z,92.30
2018-02-11T02:21:54.434Z,92.20
2018-02-11T02:24:22.081Z,92.30
2018-02-11T02:26:48.958Z,92.20
2018-02-11T02:29:16.486Z,92.30
2018-02-11T02:31:43.342Z,92.20
2018-02-11T02:34:10.945Z,92.00
2018-02-11T02:36:37.998Z,91.90
2018-02-11T02:39:04.894Z,92.20
2018-02-11T02:41:32.473Z,91.80
2018-02-11T02:44:00.122Z,92.00
2018-02-11T02:46:26.937Z,92.00
2018-02-11T02:48:53.744Z,91.90
2018-02-11T02:51:20.614Z,91.90
2018-02-11T02:53:47.534Z,91.70
2018-02-11T02:56:14.358Z,92.00
2018-02-11T02:58:41.213Z,92.20
2018-02-11T03:01:08.034Z,92.20
2018-02-11T03:03:34.936Z,92.40
2018-02-11T03:06:01.782Z,92.20
2018-02-11T03:08:28.624Z,92.10
2018-02-11T03:10:55.463Z,91.60
2018-02-11T03:13:23.089Z,91.80
2018-02-11T03:15:49.929Z,91.80
2018-02-11T03:18:16.778Z,91.80
2018-02-11T03:20:43.586Z,91.80
2018-02-11T03:23:10.525Z,92.10
2018-02-11T03:25:37.353Z,91.40
2018-02-11T03:28:04.918Z,91.70
2018-02-11T03:30:31.741Z,91.70
2018-02-11T03:32:58.685Z,91.90
2018-02-11T03:35:25.489Z,92.00
2018-02-11T03:37:52.325Z,91.80
2018-02-11T03:40:19.161Z,91.80
2018-02-11T03:42:46.166Z,91.50
2018-02-11T03:45:13.733Z,91.40
2018-02-11T03:47:41.298Z,91.80
2018-02-11T03:50:08.884Z,91.60
2018-02-11T03:52:35.786Z,91.50
2018-02-11T03:55:03.394Z,91.80
2018-02-11T03:57:30.918Z,91.70
2018-02-11T03:59:58.492Z,91.00
2018-02-11T04:02:25.417Z,91.00
2018-02-11T04:04:53.014Z,91.70
2018-02-11T04:07:19.816Z,91.70
2018-02-11T04:09:47.425Z,92.10
2018-02-11T04:12:14.262Z,92.50
2018-02-11T04:14:41.062Z,92.00
2018-02-11T04:17:08.006Z,92.10
2018-02-11T04:19:35.549Z,92.40
2018-02-11T04:22:02.384Z,92.00
2018-02-11T04:24:29.366Z,92.10
2018-02-11T04:26:56.173Z,91.60
2018-02-11T04:29:23.033Z,91.80
2018-02-11T04:31:50.734Z,92.00
2018-02-11T04:34:17.601Z,92.00
2018-02-11T04:36:44.417Z,92.10
2018-02-11T04:39:11.249Z,92.10
2018-02-11T04:41:38.810Z,92.20
2018-02-11T04:44:06.438Z,92.30
2018-02-11T04:46:33.249Z,92.30
2018-02-11T04:49:00.043Z,92.30
2018-02-11T04:51:34.554Z,92.30
2018-02-11T04:54:02.209Z,92.50
2018-02-11T04:56:29.031Z,92.40
2018-02-11T04:58:56.622Z,92.10
2018-02-11T05:01:24.202Z,92.20
2018-02-11T05:03:51.118Z,92.10
2018-02-11T05:06:18.674Z,92.60
2018-02-11T05:08:45.534Z,92.50
2018-02-11T05:11:12.413Z,92.10
2018-02-11T05:13:39.310Z,92.30
2018-02-11T05:16:06.893Z,92.20
2018-02-11T05:18:34.424Z,92.70
2018-02-11T05:21:01.365Z,92.60
2018-02-11T05:23:28.189Z,92.40
2018-02-11T05:25:55.005Z,92.30
2018-02-11T05:28:21.853Z,92.80
2018-02-11T05:30:48.633Z,92.70
2018-02-11T05:33:15.458Z,93.00
2018-02-11T05:35:42.406Z,92.60
2018-02-11T05:38:09.225Z,92.10
2018-02-11T05:40:36.030Z,92.10
2018-02-11T05:43:03.669Z,92.30
2018-02-11T05:45:30.521Z,92.30
2018-02-11T05:47:57.385Z,92.80
2018-02-11T05:50:24.293Z,92.60
2018-02-11T05:52:51.109Z,92.20
2018-02-11T05:55:17.941Z,91.80
2018-02-11T05:57:44.770Z,91.80
2018-02-11T06:00:11.645Z,92.00
2018-02-11T06:02:38.598Z,92.00
2018-02-11T06:05:05.456Z,91.90
2018-02-11T06:07:32.987Z,92.00
2018-02-11T06:09:59.833Z,91.80
2018-02-11T06:12:26.697Z,91.70
2018-02-11T06:14:53.562Z,91.80
2018-02-11T06:17:21.185Z,91.90
2018-02-11T06:19:48.061Z,91.90
2018-02-11T06:22:14.997Z,91.80
2018-02-11T06:24:41.793Z,91.70
2018-02-11T06:27:08.645Z,91.70
2018-02-11T06:29:35.470Z,91.60
2018-02-11T06:32:02.314Z,91.30
2018-02-11T06:34:29.294Z,91.20
2018-02-11T06:36:56.102Z,91.10
2018-02-11T06:39:23.053Z,91.30
2018-02-11T06:41:49.869Z,91.30
2018-02-11T06:44:17.535Z,91.40
2018-02-11T06:46:46.435Z,91.30
2018-02-11T06:49:21.864Z,90.90
2018-02-11T06:51:48.696Z,90.90
2018-02-11T06:54:16.337Z,91.40
2018-02-11T06:56:43.266Z,91.40
2018-02-11T06:59:10.282Z,91.30
2018-02-11T07:01:37.189Z,91.60
2018-02-11T07:04:04.981Z,91.90
2018-02-11T07:06:32.081Z,92.10
2018-02-11T07:09:00.478Z,91.60
2018-02-11T07:11:27.553Z,91.60
2018-02-11T07:13:55.534Z,91.40
2018-02-11T07:16:22.577Z,91.20
2018-02-11T07:18:49.554Z,91.60
2018-02-11T07:21:16.479Z,91.60
2018-02-11T07:23:44.275Z,91.30
2018-02-11T07:26:12.023Z,91.30
2018-02-11T07:28:39.617Z,91.40
2018-02-11T07:31:06.478Z,91.40
2018-02-11T07:33:34.082Z,91.80
2018-02-11T07:36:00.961Z,91.80
2018-02-11T07:38:28.035Z,91.60
2018-02-11T07:40:54.918Z,91.50
2018-02-11T07:43:21.801Z,91.70
2018-02-11T07:45:49.405Z,91.70
2018-02-11T07:48:16.226Z,91.70
2018-02-11T07:50:43.163Z,91.30
2018-02-11T07:53:10.961Z,91.20
2018-02-11T07:55:37.926Z,91.10
2018-02-11T07:58:04.905Z,91.10
2018-02-11T08:00:31.796Z,90.80
2018-02-11T08:02:58.659Z,91.10
2018-02-11T08:05:25.637Z,90.90
2018-02-11T08:07:53.250Z,90.90
2018-02-11T08:10:20.072Z,90.90
2018-02-11T08:12:46.997Z,90.80
2018-02-11T08:15:14.953Z,90.60
2018-02-11T08:17:41.893Z,90.60
2018-02-11T08:20:08.721Z,90.70
2018-02-11T08:22:35.577Z,90.60
2018-02-11T08:25:02.458Z,90.30
2018-02-11T08:27:30.026Z,90.50
2018-02-11T08:29:57.145Z,90.50
2018-02-11T08:32:24.994Z,90.10
2018-02-11T08:34:51.830Z,90.00
2018-02-11T08:37:18.690Z,90.00
2018-02-11T08:39:46.252Z,88.90
2018-02-11T08:42:13.893Z,87.70
2018-02-11T08:44:40.774Z,87.60
2018-02-11T08:47:07.882Z,87.50
2018-02-11T08:49:34.801Z,87.70
2018-02-11T08:52:01.618Z,87.80
2018-02-11T08:54:28.545Z,87.80
2018-02-11T08:57:03.058Z,86.00
2018-02-11T08:59:30.668Z,86.30
2018-02-11T09:01:57.477Z,86.30
2018-02-11T09:04:25.475Z,84.00
2018-02-11T09:06:52.614Z,83.80
2018-02-11T09:09:19.705Z,84.70
2018-02-11T09:11:47.451Z,84.70
2018-02-11T09:14:15.165Z,85.40
2018-02-11T09:16:43.720Z,85.20
2018-02-11T09:19:12.743Z,83.60
2018-02-11T09:21:39.618Z,84.40
2018-02-11T09:24:06.520Z,84.30
2018-02-11T09:26:33.486Z,85.00
2018-02-11T09:29:00.338Z,83.30
2018-02-11T09:31:27.179Z,83.60
2018-02-11T09:33:54.810Z,83.00
2018-02-11T09:36:21.622Z,83.00
2018-02-11T09:38:48.441Z,83.30
2018-02-11T09:41:15.301Z,85.00
2018-02-11T09:43:42.285Z,83.90
2018-02-11T09:46:09.118Z,83.80
2018-02-11T09:48:35.937Z,81.00
2018-02-11T09:51:02.865Z,82.20
2018-02-11T09:53:30.470Z,81.60
2018-02-11T09:55:57.289Z,81.60
2018-02-11T09:58:24.150Z,82.00
2018-02-11T10:00:50.970Z,80.30
2018-02-11T10:03:17.767Z,79.80
2018-02-11T10:05:45.366Z,78.30
2018-02-11T10:08:12.189Z,78.30
2018-02-11T10:10:38.998Z,79.10
2018-02-11T10:13:05.929Z,78.60
2018-02-11T10:15:40.461Z,76.90
2018-02-11T10:18:07.323Z,76.90
2018-02-11T10:20:34.170Z,77.50
2018-02-11T10:23:01.058Z,76.20
2018-02-11T10:25:27.897Z,76.70
2018-02-11T10:27:54.710Z,74.20
2018-02-11T10:30:21.574Z,73.20
2018-02-11T10:32:48.430Z,73.20
2018-02-11T10:35:15.268Z,73.30
2018-02-11T10:37:42.086Z,73.20
2018-02-11T10:40:08.929Z,69.10
2018-02-11T10:42:35.930Z,68.60
2018-02-11T10:45:03.520Z,66.50
2018-02-11T10:47:30.355Z,66.30
2018-02-11T10:49:57.205Z,65.30
2018-02-11T10:52:24.102Z,62.20
2018-02-11T10:54:50.947Z,61.50
2018-02-11T10:57:17.777Z,56.10
2018-02-11T10:59:44.613Z,55.10
2018-02-11T11:02:11.509Z,54.10
2018-02-11T11:04:39.075Z,49.30
2018-02-11T11:07:05.897Z,49.20
2018-02-11T11:09:32.878Z,51.60
2018-02-11T11:11:59.709Z,52.20
2018-02-11T11:14:26.614Z,49.90
2018-02-11T11:16:53.573Z,50.20
2018-02-11T11:19:21.173Z,49.40
2018-02-11T11:21:48.002Z,49.30
2018-02-11T11:24:14.946Z,47.20
2018-02-11T11:26:41.806Z,43.70
2018-02-11T11:29:08.646Z,41.50
2018-02-11T11:31:35.505Z,41.50
2018-02-11T11:34:02.401Z,41.70
2018-02-11T11:36:29.961Z,40.70
2018-02-11T11:38:57.547Z,38.40
2018-02-11T11:41:24.698Z,38.30
2018-02-11T11:43:51.701Z,38.00
2018-02-11T11:46:18.518Z,37.40
2018-02-11T11:48:45.406Z,37.50
2018-02-11T11:51:12.317Z,37.60
2018-02-11T11:53:39.160Z,36.80
2018-02-11T11:56:06.198Z,33.80
2018-02-11T11:58:33.870Z,35.70
2018-02-11T12:01:00.966Z,35.70
2018-02-11T12:03:28.118Z,35.60
2018-02-11T12:05:55.049Z,34.50
2018-02-11T12:08:22.770Z,34.50
2018-02-11T12:10:49.662Z,34.40
2018-02-11T12:13:17.333Z,31.50
2018-02-11T12:15:45.021Z,31.80
2018-02-11T12:18:11.911Z,31.90
2018-02-11T12:20:38.741Z,30.30
2018-02-11T12:23:05.745Z,29.30
2018-02-11T12:25:32.859Z,29.70
2018-02-11T12:28:00.537Z,26.60
2018-02-11T12:30:27.445Z,26.60
2018-02-11T12:32:54.406Z,28.10
2018-02-11T12:35:21.361Z,29.10
2018-02-11T12:37:48.241Z,28.70
2018-02-11T12:40:15.329Z,27.20
2018-02-11T12:42:42.688Z,27.40
2018-02-11T12:45:09.671Z,27.50
2018-02-11T12:47:36.630Z,27.60
2018-02-11T12:50:03.722Z,27.80
2018-02-11T12:52:30.719Z,27.70
2018-02-11T12:54:57.623Z,28.10
2018-02-11T12:57:25.399Z,27.30
2018-02-11T12:59:52.399Z,27.20
2018-02-11T13:02:20.326Z,28.30
2018-02-11T13:04:47.370Z,27.80
2018-02-11T13:07:14.325Z,27.20
2018-02-11T13:09:42.018Z,27.90
2018-02-11T13:12:09.013Z,27.90
2018-02-11T13:14:36.042Z,28.60
2018-02-11T13:17:02.846Z,28.20
2018-02-11T13:19:29.659Z,29.70
2018-02-11T13:21:57.427Z,30.00
2018-02-11T13:24:25.026Z,31.30
2018-02-11T13:26:51.957Z,31.20
2018-02-11T13:29:18.998Z,32.20
2018-02-11T13:31:46.016Z,30.60
2018-02-11T13:34:12.937Z,27.80
2018-02-11T13:36:39.950Z,27.80
2018-02-11T13:39:06.814Z,28.60
2018-02-11T13:41:33.783Z,30.00
2018-02-11T13:44:01.573Z,38.90
2018-02-11T13:46:28.461Z,38.80
2018-02-11T13:48:56.077Z,41.40
2018-02-11T13:51:22.945Z,41.30
2018-02-11T13:53:49.933Z,42.80
2018-02-11T13:56:17.149Z,45.90
2018-02-11T13:58:44.062Z,46.90
2018-02-11T14:01:11.155Z,48.30
2018-02-11T14:03:38.886Z,51.60
2018-02-11T14:06:05.838Z,51.60
2018-02-11T14:08:32.874Z,52.70
2018-02-11T14:10:59.898Z,52.70
2018-02-11T14:13:26.909Z,52.40
2018-02-11T14:15:53.760Z,52.60
2018-02-11T14:18:20.585Z,53.50
2018-02-11T14:20:47.617Z,54.20
2018-02-11T14:23:14.615Z,54.30
2018-02-11T14:25:41.449Z,53.80
2018-02-11T14:28:09.161Z,54.50
2018-02-11T14:30:36.140Z,54.40
2018-02-11T14:33:03.191Z,54.80
2018-02-11T14:35:30.150Z,55.50
2018-02-11T14:37:57.142Z,57.00
2018-02-11T14:40:24.804Z,57.20
2018-02-11T14:42:51.800Z,57.20
2018-02-11T14:45:18.743Z,57.90
2018-02-11T14:47:46.318Z,58.40
2018-02-11T14:50:13.896Z,58.50
2018-02-11T14:52:41.853Z,57.90
2018-02-11T14:55:16.939Z,59.10
2018-02-11T14:57:44.138Z,59.10
2018-02-11T15:00:10.991Z,60.20
2018-02-11T15:02:38.606Z,62.50
2018-02-11T15:05:05.499Z,62.40
2018-02-11T15:07:33.078Z,63.50
2018-02-11T15:09:59.897Z,63.50
2018-02-11T15:12:27.563Z,62.70
2018-02-11T15:15:02.062Z,62.60
2018-02-11T15:17:32.329Z,64.40
2018-02-11T15:19:59.423Z,64.30
2018-02-11T15:22:26.349Z,65.90
2018-02-11T15:24:53.458Z,65.80
2018-02-11T15:27:20.438Z,65.10
2018-02-11T15:29:47.298Z,65.50
2018-02-11T15:32:14.190Z,66.50
2018-02-11T15:34:41.858Z,66.30
2018-02-11T15:37:08.696Z,66.10
2018-02-11T15:39:35.555Z,67.40
2018-02-11T15:42:02.462Z,66.50
2018-02-11T15:44:30.102Z,65.80
2018-02-11T15:46:56.929Z,65.60
2018-02-11T15:49:23.797Z,65.70
2018-02-11T15:51:51.709Z,66.90
2018-02-11T15:54:18.687Z,66.80
2018-02-11T15:56:45.602Z,67.80
2018-02-11T15:59:19.915Z,68.40
2018-02-11T16:01:46.890Z,68.40
2018-02-11T16:04:14.534Z,68.20
2018-02-11T16:06:41.439Z,68.20
2018-02-11T16:09:08.326Z,67.90
2018-02-11T16:11:35.264Z,69.30
2018-02-11T16:14:03.007Z,69.80
2018-02-11T16:16:29.896Z,69.80
2018-02-11T16:18:56.842Z,69.80
2018-02-11T16:21:23.833Z,69.60
2018-02-11T16:23:50.762Z,69.60
2018-02-11T16:26:18.482Z,70.30
2018-02-11T16:28:45.331Z,70.30
2018-02-11T16:31:13.093Z,72.20
2018-02-11T16:33:40.211Z,71.30
2018-02-11T16:36:07.258Z,71.30
2018-02-11T16:38:34.326Z,71.60
2018-02-11T16:41:01.318Z,72.40
2018-02-11T16:43:28.373Z,73.20
2018-02-11T16:45:55.312Z,73.80
2018-02-11T16:48:22.366Z,74.70
2018-02-11T16:50:49.985Z,74.90
2018-02-11T16:53:17.066Z,74.90
2018-02-11T16:55:44.023Z,76.20
2018-02-11T16:58:11.778Z,76.40
2018-02-11T17:00:38.953Z,76.40
2018-02-11T17:03:06.530Z,76.70
2018-02-11T17:05:34.504Z,77.00
2018-02-11T17:08:02.074Z,77.20
2018-02-11T17:10:29.022Z,77.60
2018-02-11T17:12:55.895Z,77.50
2018-02-11T17:15:22.890Z,77.70
2018-02-11T17:17:49.765Z,78.30
2018-02-11T17:20:16.778Z,78.50
2018-02-11T17:22:44.005Z,78.30
2018-02-11T17:25:11.817Z,79.10
2018-02-11T17:27:38.770Z,79.00
2018-02-11T17:30:05.649Z,79.30
2018-02-11T17:32:32.567Z,79.00
2018-02-11T17:35:00.200Z,79.10
2018-02-11T17:37:27.146Z,79.20
2018-02-11T17:39:54.174Z,79.30
2018-02-11T17:42:21.942Z,79.50
2018-02-11T17:44:48.895Z,79.50
2018-02-11T17:47:15.822Z,79.10
2018-02-11T17:49:42.810Z,79.50
2018-02-11T17:52:10.480Z,79.70
2018-02-11T17:54:38.224Z,80.20
2018-02-11T17:57:05.075Z,80.00
2018-02-11T17:59:32.191Z,80.70
2018-02-11T18:01:59.259Z,80.60
2018-02-11T18:04:27.029Z,80.90
2018-02-11T18:06:54.806Z,80.60
2018-02-11T18:09:22.499Z,80.50
2018-02-11T18:11:49.394Z,80.50
2018-02-11T18:14:16.416Z,80.80
2018-02-11T18:16:43.434Z,81.10
2018-02-11T18:19:10.369Z,81.40
2018-02-11T18:21:37.433Z,81.70
2018-02-11T18:24:04.321Z,81.60
2018-02-11T18:26:31.268Z,81.60
2018-02-11T18:28:58.230Z,81.60
2018-02-11T18:31:25.306Z,81.80
2018-02-11T18:33:53.142Z,82.00
2018-02-11T18:36:20.878Z,82.10
2018-02-11T18:38:47.866Z,82.10
2018-02-11T18:41:14.810Z,82.60
2018-02-11T18:43:41.922Z,82.60
2018-02-11T18:46:08.805Z,82.30
2018-02-11T18:48:35.725Z,82.10
2018-02-11T18:51:03.478Z,82.10
2018-02-11T18:53:30.422Z,82.10
2018-02-11T18:55:57.359Z,82.90
2018-02-11T18:58:24.235Z,81.90
2018-02-11T19:00:51.317Z,81.90
2018-02-11T19:03:18.334Z,81.80
2018-02-11T19:05:45.279Z,81.80
2018-02-11T19:08:12.995Z,81.60
2018-02-11T19:10:40.022Z,81.60
2018-02-11T19:13:07.000Z,81.70
2018-02-11T19:15:33.947Z,81.70
2018-02-11T19:18:01.594Z,82.70
2018-02-11T19:20:28.671Z,81.90
2018-02-11T19:22:55.702Z,81.80
2018-02-11T19:25:23.422Z,82.00
2018-02-11T19:27:50.445Z,81.90
2018-02-11T19:30:17.486Z,81.80
2018-02-11T19:32:44.343Z,81.70
2018-02-11T19:35:11.394Z,81.90
2018-02-11T19:37:38.379Z,81.70
2018-02-11T19:40:05.437Z,81.80
2018-02-11T19:42:33.107Z,81.40
2018-02-11T19:45:00.298Z,81.30
2018-02-11T19:47:27.334Z,81.50
2018-02-11T19:49:55.063Z,81.00
2018-02-11T19:52:22.027Z,81.00
2018-02-11T19:54:50.126Z,81.20
2018-02-11T19:57:17.031Z,82.00
2018-02-11T19:59:44.349Z,81.80
2018-02-11T20:02:11.290Z,82.20
2018-02-11T20:04:39.063Z,81.80
2018-02-11T20:07:06.067Z,82.60
2018-02-11T20:09:33.726Z,82.30
2018-02-11T20:12:03.162Z,82.30
2018-02-11T20:14:30.335Z,81.60
2018-02-11T20:16:57.229Z,81.70
2018-02-11T20:19:24.830Z,81.60
2018-02-11T20:21:51.862Z,81.70
2018-02-11T20:24:19.559Z,82.20
2018-02-11T20:26:46.619Z,82.20
2018-02-11T20:29:14.264Z,81.80
2018-02-11T20:31:41.089Z,81.80
2018-02-11T20:34:08.130Z,82.10
2018-02-11T20:36:35.502Z,82.10
2018-02-11T20:39:02.562Z,81.90
2018-02-11T20:41:29.570Z,82.40
2018-02-11T20:43:56.582Z,82.50
2018-02-11T20:46:23.542Z,82.50
2018-02-11T20:48:53.443Z,82.70
2018-02-11T20:51:20.459Z,82.60
2018-02-11T20:53:47.350Z,83.10
2018-02-11T20:56:15.910Z,83.80
2018-02-11T20:58:42.876Z,83.80
2018-02-11T21:01:09.991Z,83.30
2018-02-11T21:03:38.253Z,84.20
2018-02-11T21:06:05.315Z,83.10
2018-02-11T21:08:32.379Z,83.30
2018-02-11T21:10:59.370Z,84.00
2018-02-11T21:13:26.359Z,84.60
2018-02-11T21:15:53.694Z,84.90
2018-02-11T21:18:21.236Z,85.10
2018-02-11T21:20:49.399Z,84.60
2018-02-11T21:23:18.094Z,85.00
2018-02-11T21:25:45.767Z,85.10
2018-02-11T21:28:14.055Z,85.00
2018-02-11T21:30:40.965Z,85.10
2018-02-11T21:33:08.619Z,84.90
2018-02-11T21:35:35.514Z,84.90
2018-02-11T21:38:02.533Z,85.20
2018-02-11T21:40:29.449Z,85.60
2018-02-11T21:42:57.306Z,85.50
2018-02-11T21:45:24.278Z,85.80
2018-02-11T21:47:51.325Z,85.80
2018-02-11T21:50:18.404Z,86.40
2018-02-11T21:52:45.315Z,85.70
2018-02-11T21:55:12.308Z,85.60
2018-02-11T21:57:39.333Z,86.10
2018-02-11T22:02:33.410Z,85.80
2018-02-11T22:05:00.729Z,85.50
2018-02-11T22:07:27.666Z,85.50
2018-02-11T22:09:55.301Z,85.80
2018-02-11T22:12:22.367Z,85.80
2018-02-11T22:14:49.324Z,85.70
2018-02-11T22:17:16.409Z,85.80
2018-02-11T22:19:43.490Z,85.50
2018-02-11T22:22:10.369Z,85.30
2018-02-11T22:24:37.202Z,85.40
2018-02-11T22:27:04.194Z,86.50
2018-02-11T22:29:31.165Z,85.80
2018-02-11T22:31:58.086Z,85.60
2018-02-11T22:34:25.070Z,85.30
2018-02-11T22:36:52.836Z,85.30
2018-02-11T22:39:20.453Z,84.60
2018-02-11T22:41:47.264Z,85.30
2018-02-11T22:44:14.297Z,85.40
2018-02-11T22:46:41.366Z,85.80
2018-02-11T22:49:08.255Z,85.90
2018-02-11T22:51:36.106Z,86.10
2018-02-11T22:54:03.094Z,86.10
2018-02-11T22:56:29.965Z,86.20
2018-02-11T23:01:23.655Z,86.10
2018-02-11T23:03:50.663Z,85.90
2018-02-11T23:06:17.541Z,86.20
2018-02-11T23:08:44.649Z,86.50
2018-02-11T23:11:11.597Z,86.10
2018-02-11T23:13:38.597Z,86.10
2018-02-11T23:16:05.500Z,86.30
2018-02-11T23:18:32.493Z,86.40
2018-02-11T23:20:59.382Z,86.20
2018-02-11T23:23:27.404Z,86.10
2018-02-11T23:25:54.274Z,85.40
2018-02-11T23:28:21.085Z,85.30
2018-02-11T23:30:48.183Z,85.10
2018-02-11T23:33:15.846Z,85.00
2018-02-11T23:35:42.661Z,85.00
2018-02-11T23:38:10.410Z,85.00
2018-02-11T23:40:37.441Z,84.90
2018-02-11T23:43:04.513Z,84.70
2018-02-11T23:45:31.494Z,84.90
2018-02-11T23:47:58.337Z,85.10
2018-02-11T23:50:25.369Z,85.60
2018-02-11T23:52:52.281Z,85.70
2018-02-11T23:55:19.297Z,85.90
2018-02-11T23:57:46.197Z,85.80
